AirNav   Air Wisconsin Up To $57,000 Bonus
 
 1460 users online  

KPJC Zelienople Municipal Airport
Zelienople, Pennsylvania, USA

GOING TO ZELIENOPLE?


FAA INFORMATION EFFECTIVE 05 DECEMBER 2019

Location

FAA Identifier: PJC
Lat/Long: 40-48-07.1000N 080-09-39.1000W
40-48.118333N 080-09.651667W
40.8019722,-80.1608611
(estimated)
Elevation: 897.8 ft. / 273.6 m (surveyed)
Variation: 09W (2000)
From city: 1 mile W of ZELIENOPLE, PA
Time zone: UTC -5 (UTC -4 during Daylight Saving Time)
Zip code: 16123

Airport Operations

Airport use: Open to the public
Activation date: 03/1958
Control tower: no
ARTCC: CLEVELAND CENTER
FSS: ALTOONA FLIGHT SERVICE STATION
NOTAMs facility: AOO (NOTAM-D service available)
Attendance: MON-FRI 0600-2200, ALL SAT-SUN ON CALL
FOR ATTENDANT SAT-SUN CALL 724-452-4719.
Wind indicator: lighted
Segmented circle: no
Lights: ACTVT REIL RWY 17 & 35; MIRL RWY 17/35 AFT 2200 - CTAF. PAPI CONS & MIRL OPER DUSK-2200.
Beacon: white-green (lighted land airport)
Operates sunset to sunrise.

Airport Communications

CTAF: 122.9
WX AWOS-3PT: 118.45 (724-452-5304)
PITTSBURGH APPROACH: 124.75
PITTSBURGH DEPARTURE: 124.75
WX AWOS-3PT at BTP (10 nm E): 121.450 (724-586-6434)
WX AWOS-3PT at BVI (11 nm W): 118.35 (724-843-1024)
WX AWOS-3PT at UCP (18 nm NW): 124.175 ((724) 652-4184)
WX ASOS at PIT (19 nm S): PHONE 412-472-0145

Nearby radio navigation aids

VOR radial/distance  VOR name  Freq  Var
EWCr129/2.7ELLWOOD CITY VOR/DME115.8008W
AGCr359/31.9ALLEGHENY VOR/DME110.0009W
HLGr037/37.5WHEELING VOR/DME112.2007W
CIPr243/38.0CLARION VOR/DME112.9006W
YNGr149/39.3YOUNGSTOWN VORTAC109.0005W

 
NDB name  Hdg/Dist  Freq  Var  ID
CASTLE148/17.627209WUCP ..- -.-. .--.

Airport Services

Fuel available: 100LL JET-A JET-A+
Parking: hangars and tiedowns
Airframe service: MAJOR
Powerplant service: MAJOR
Bottled oxygen: HIGH
Bulk oxygen: LOW

Runway Information

Runway 17/35

Dimensions: 4933 x 75 ft. / 1504 x 23 m
Surface: asphalt, in fair condition
Runway edge lights: medium intensity
RUNWAY 17  RUNWAY 35
Latitude: 40-48.511208N40-47.725148N
Longitude: 080-09.786162W080-09.516012W
Elevation: 889.9 ft.896.2 ft.
Traffic pattern: leftleft
Runway heading: 174 magnetic, 165 true354 magnetic, 345 true
Displaced threshold: 551 ft.282 ft.
Declared distances: TORA:4241 TODA:5056 ASDA:4932 LDA:4382TORA:4932 TODA:4932 ASDA:4632 LDA:4352
Markings: nonprecision, in fair conditionnonprecision, in fair condition
Visual slope indicator: 2-light PAPI on left (3.48 degrees glide path)
PAPI UNUSBL BYD 5 DEG L OF CNTRLN.
Runway end identifier lights: yesyes
Touchdown point: yes, no lightsyes, no lights
Obstructions: 81 ft. trees, 226 ft. from runway, 214 ft. left of centerline
105 FT OBSTR LGT POLE 377 FT FROM THLD 256 FT L. 8:1 TO DTHR.
72 ft. pole, lighted, 482 ft. from runway, 292 ft. right of centerline, 3:1 slope to clear
RWY 35 +71 FT POLE, DIST 480 FT, 291 FT RT, 10:1 TO DTHR.

Airport Ownership and Management from official FAA records

Ownership: Publicly-owned
Owner: ARPT AUTH BORO ZELIENOPLE
1857 ROUTE 588
ZELIENOPLE, PA 16063
Phone 724-452-1290
Manager: DAVE HOLMAN
1857 ROUTE 588
ZELIENOPLE, PA 16063
Phone 724-452-4719

Airport Operational Statistics

Aircraft based on the field: 46
Single engine airplanes: 34
Multi engine airplanes: 3
Jet airplanes: 5
Helicopters: 4
    
Aircraft operations: avg 51/day *
68% local general aviation
22% transient general aviation
9% air taxi
<1% military
* for 12-month period ending 24 September 2019

Additional Remarks

DEER & GEESE ON & INVOF RWY.
PARALLEL TXY MKD WITH REFLECTORS.
FOR CD CTC PITTSBURGH APCH AT 412-472-5591.

Instrument Procedures

NOTE: All procedures below are presented as PDF files. If you need a reader for these files, you should download the free Adobe Reader.

NOT FOR NAVIGATION. Please procure official charts for flight.
FAA instrument procedures published for use from 05 December 2019 at 0900Z to 02 January 2020 at 0900Z.

 
IAPs - Instrument Approach Procedures
RNAV (GPS) RWY 17 **CHANGED**   download (162KB)
RNAV (GPS) RWY 35 **CHANGED**   download (177KB)
NOTE: Special Take-Off Minimums/Departure Procedures apply   download (149KB)

Other nearby airports with instrument procedures:

KBTP - Pittsburgh/Butler Regional Airport (10 nm E)
KBVI - Beaver County Airport (11 nm W)
KUCP - New Castle Municipal Airport (18 nm NW)
KPIT - Pittsburgh International Airport (19 nm S)
29D - Grove City Airport (21 nm N)
 
Loc | Ops | Rwys | IFR | FBO | Links
Com | Nav | Svcs | Stats | Notes
Area around KPJC (Zelienople Municipal Airport)
 
Road maps at: MapQuest Bing Google
 
Aerial photo
WARNING: Photo may not be current or correct
Aerial photo of KPJC (Zelienople Municipal Airport)
Photo taken 22-Jun-2015
looking north.

Do you have a better or more recent aerial photo of Zelienople Municipal Airport that you would like to share? If so, please send us your photo.

 
Sectional chart

 
Airport distance calculator
Flying to Zelienople Municipal Airport? Find the distance to fly.

From to KPJC

Sunrise and sunset
Times for 07-Dec-2019
 Local
(UTC-5)
 Zulu
(UTC)
Morning civil twilight07:0212:02
Sunrise07:3212:32
Sunset16:5221:52
Evening civil twilight17:2322:23

Current date and time
Zulu (UTC)  07-Dec-2019 22:54:29
Local (UTC-5)  07-Dec-2019 17:54:29
 
METAR
KPJC 072235Z AUTO 00000KT 10SM CLR M01/M06 A3041 RMK AO2
KBTP 
10nm E 
072156Z AUTO 00000KT 10SM CLR 01/M07 A3039 RMK AO2 SLP313 T00061072 FZRANO
KBVI 
11nm W 
072235Z AUTO 00000KT 10SM CLR 01/M07 A3039 RMK AO2 T00111070
KUCP 
18nm NW 
072156Z AUTO 00000KT 10SM CLR 01/M07 A3040 RMK AO2 SLP324 T00061067
KPIT 
19nm S 
072151Z 00000KT 10SM SCT250 02/M08 A3038 RMK AO2 SLP309 T00171078
TAF
KBVI 
11nm W 
071727Z 0718/0818 VRB02KT P6SM SKC FM081400 17009G15KT P6SM BKN250
KPIT 
19nm S 
072056Z 0721/0824 VRB03KT P6SM SKC FM081400 14004KT P6SM SCT020 FM081800 19007KT P6SM BKN025
NOTAMs
Click for the latest NOTAMs
NOTAMs are issued by the DoD/FAA and will open in a separate window not controlled by AirNav.

 

 
 

FBO, Fuel Providers, and Aircraft Ground Support

  
 Business Name 
 
 Contact 
 
 Services / Description 
 
Fuel Prices
 
Comments
  
Pittsburgh Jet Center 724-452-4719
no information available

If you are affiliated with Pittsburgh Jet Center and would like to show here your services, contact info, web link, logo, and more, click here
100LL Jet A
FS --- $4.64 
SS $5.17 $4.64 
 Updated 05-Dec-2019
 
   write
FS=Full service
SS=Self service
Update Fuel Prices
 

Would you like to see your business listed on this page?

 If your business provides an interesting product or service to pilots, flight crews, aircraft, or users of the Zelienople Municipal Airport, you should consider listing it here.  To start the listing process, click on the button below
 
Add a business
 

Other Pages about Zelienople Municipal Airport

boro.zelienople.pa.us/airport.htm
 
Update a link
 
Copyright © AirNav, LLC. All rights reserved. Privacy Policy  Contact